Time;durP1;ratioP1;P1;durP2;ratioP2;P2;SDS_P1;SDS_P2;PMS_P1;PMS_P2;Temp;Humidity;BMP_temperature;BMP_pressure;BME280_temperature;BME280_humidity;BME280_pressure;Samples;Min_cycle;Max_cycle;Signal;HPM_P1;HPM_P2
2024/01/18 00:00:13;;;;;;;;;;;;;;;15.79;42.13;100312.00;5088264;28;1130;-46
2024/01/18 00:02:39;;;;;;;;;;;;;;;15.37;43.03;100307.19;5105895;28;1182;-49
2024/01/18 00:05:04;;;;;;;;;;;;;;;15.24;43.04;100300.16;5117790;28;838;-47
2024/01/18 00:07:30;;;;;;;;;;;;;;;16.81;40.12;100302.34;5119237;28;1041;-45
2024/01/18 00:09:56;;;;;;;;;;;;;;;15.50;42.68;100300.00;5119133;28;1034;-44
2024/01/18 00:12:21;;;;;;;;;;;;;;;15.12;43.23;100288.69;5118533;28;1065;-48
2024/01/18 00:14:47;;;;;;;;;;;;;;;15.12;43.23;100293.13;5106359;28;1970;-47
2024/01/18 00:17:12;;;;;;;;;;;;;;;17.22;39.48;100297.28;5107345;28;1076;-47
2024/01/18 00:19:38;;;;;;;;;;;;;;;16.19;41.12;100286.00;5118563;28;1092;-48
2024/01/18 00:22:03;;;;;;;;;;;;;;;15.98;42.40;100279.63;5118137;28;1053;-49
2024/01/18 00:24:29;;;;;;;;;;;;;;;17.64;38.57;100290.28;5093202;28;1513;-48
2024/01/18 00:26:55;;;;;;;;;;;;;;;16.11;41.47;100281.31;5118454;28;1025;-46
2024/01/18 00:29:20;;;;;;;;;;;;;;;16.61;40.97;100288.03;5116809;28;1393;-47
2024/01/18 00:31:46;;;;;;;;;;;;;;;16.67;40.24;100281.34;5104273;28;1117;-47
2024/01/18 00:34:11;;;;;;;;;;;;;;;15.74;42.10;100267.28;5092857;28;1883;-48
2024/01/18 00:36:37;;;;;;;;;;;;;;;15.35;43.16;100269.38;5118034;28;1053;-50
2024/01/18 00:39:10;;;;;;;;;;;;;;;15.22;42.71;100262.34;5105871;28;1138;-46
2024/01/18 00:41:39;;;;;;;;;;;;;;;17.24;39.60;100263.44;5109477;28;1057;-46
2024/01/18 00:44:04;;;;;;;;;;;;;;;16.17;41.56;100251.63;5118316;28;1132;-48
2024/01/18 00:46:30;;;;;;;;;;;;;;;15.57;42.83;100251.81;5103369;28;1216;-49
2024/01/18 00:48:55;;;;;;;;;;;;;;;15.54;43.00;100248.47;5098049;28;1054;-50
2024/01/18 00:51:21;;;;;;;;;;;;;;;17.20;39.53;100243.41;5111338;28;1045;-47
2024/01/18 00:53:47;;;;;;;;;;;;;;;15.78;42.39;100242.19;5108489;28;1922;-48
2024/01/18 00:56:12;;;;;;;;;;;;;;;16.76;40.54;100249.59;5118130;28;1093;-45
2024/01/18 00:58:39;;;;;;;;;;;;;;;16.48;40.70;100248.34;5111081;28;1061;-45
2024/01/18 01:01:05;;;;;;;;;;;;;;;15.62;42.66;100231.09;5112217;28;1166;-45
2024/01/18 01:03:31;;;;;;;;;;;;;;;17.38;39.34;100237.53;5110248;28;1038;-48
2024/01/18 01:05:56;;;;;;;;;;;;;;;16.00;41.79;100231.75;5111089;28;1271;-45
2024/01/18 01:08:22;;;;;;;;;;;;;;;15.46;42.70;100227.00;5110780;28;1212;-44
2024/01/18 01:10:47;;;;;;;;;;;;;;;17.29;39.54;100225.84;5111344;28;1181;-48
2024/01/18 01:13:13;;;;;;;;;;;;;;;17.08;39.40;100217.84;5110303;28;1905;-49
2024/01/18 01:15:38;;;;;;;;;;;;;;;15.98;42.12;100209.78;5093522;28;1200;-46
2024/01/18 01:18:04;;;;;;;;;;;;;;;15.54;42.77;100208.69;5105216;28;1134;-44
2024/01/18 01:20:30;;;;;;;;;;;;;;;17.09;40.03;100212.41;5117605;28;1025;-46
2024/01/18 01:22:56;;;;;;;;;;;;;;;16.37;40.97;100204.94;5113287;28;891;-46
2024/01/18 01:25:22;;;;;;;;;;;;;;;15.66;42.70;100196.25;5106970;28;1105;-45
2024/01/18 01:27:48;;;;;;;;;;;;;;;15.49;42.82;100188.78;5113804;28;978;-45
2024/01/18 01:30:14;;;;;;;;;;;;;;;15.33;42.90;100183.84;5109531;28;867;-47
2024/01/18 01:32:39;;;;;;;;;;;;;;;17.41;39.19;100193.84;5099921;28;1088;-48
2024/01/18 01:35:05;;;;;;;;;;;;;;;15.83;42.31;100183.47;5106927;28;1918;-51
2024/01/18 01:37:30;;;;;;;;;;;;;;;15.78;42.75;100183.03;5100851;28;1217;-49
2024/01/18 01:39:56;;;;;;;;;;;;;;;17.21;39.30;100185.78;5107073;28;1223;-44
2024/01/18 01:42:22;;;;;;;;;;;;;;;15.85;42.01;100180.75;5113806;28;1209;-49
2024/01/18 01:44:47;;;;;;;;;;;;;;;15.37;43.11;100175.53;5117359;28;1081;-48
2024/01/18 01:47:13;;;;;;;;;;;;;;;17.05;40.07;100179.06;5103010;28;1054;-43
2024/01/18 01:49:38;;;;;;;;;;;;;;;15.87;42.17;100169.03;5116541;28;1077;-44
2024/01/18 01:52:04;;;;;;;;;;;;;;;15.58;42.91;100171.34;5090969;28;1031;-47
2024/01/18 01:54:32;;;;;;;;;;;;;;;17.57;38.84;100166.78;5102844;28;1981;-46
2024/01/18 01:56:57;;;;;;;;;;;;;;;16.02;41.81;100164.34;5096896;28;1026;-47
2024/01/18 01:59:23;;;;;;;;;;;;;;;15.38;42.84;100165.78;5110762;28;1045;-46
2024/01/18 02:01:48;;;;;;;;;;;;;;;16.25;42.02;100164.28;5103026;28;1097;-49
2024/01/18 02:04:14;;;;;;;;;;;;;;;17.02;39.64;100161.56;5103458;28;1137;-43
2024/01/18 02:06:39;;;;;;;;;;;;;;;15.78;42.13;100151.22;5103396;28;1039;-43
2024/01/18 02:09:05;;;;;;;;;;;;;;;15.40;43.04;100147.94;5096886;28;1027;-46
2024/01/18 02:11:31;;;;;;;;;;;;;;;15.24;43.12;100153.56;5116922;28;951;-46
2024/01/18 02:13:56;;;;;;;;;;;;;;;17.34;39.56;100138.56;5116794;28;1914;-47
2024/01/18 02:16:22;;;;;;;;;;;;;;;15.91;42.00;100135.97;5089703;28;1039;-43
2024/01/18 02:18:48;;;;;;;;;;;;;;;15.41;43.20;100134.56;5070976;28;942;-43
2024/01/18 02:21:14;;;;;;;;;;;;;;;15.26;43.21;100131.31;5090253;28;1034;-46
2024/01/18 02:23:40;;;;;;;;;;;;;;;17.10;40.15;100137.03;5084964;28;1149;-46
2024/01/18 02:26:05;;;;;;;;;;;;;;;16.44;40.84;100136.25;5099358;28;1110;-47
2024/01/18 02:28:31;;;;;;;;;;;;;;;15.67;43.07;100130.81;5116082;28;1101;-45
2024/01/18 02:30:56;;;;;;;;;;;;;;;17.69;38.76;100124.97;5103489;28;926;-43
2024/01/18 02:33:22;;;;;;;;;;;;;;;16.00;41.79;100115.00;5108952;28;1922;-45
2024/01/18 02:35:47;;;;;;;;;;;;;;;15.66;42.64;100118.53;5103996;28;1102;-47
2024/01/18 02:38:13;;;;;;;;;;;;;;;16.22;42.02;100107.97;5097626;28;1026;-46
2024/01/18 02:40:39;;;;;;;;;;;;;;;16.85;39.88;100098.41;5103627;28;1515;-46
2024/01/18 02:43:04;;;;;;;;;;;;;;;15.72;42.25;100104.78;5100661;28;1035;-47
2024/01/18 02:45:30;;;;;;;;;;;;;;;15.40;43.20;100103.72;5096068;28;1162;-45
2024/01/18 02:47:55;;;;;;;;;;;;;;;17.07;39.82;100097.41;5109930;28;1082;-44
2024/01/18 02:50:21;;;;;;;;;;;;;;;15.72;42.25;100091.53;5097211;28;1134;-47
2024/01/18 02:52:47;;;;;;;;;;;;;;;15.41;42.76;100093.97;5096049;28;1022;-42
2024/01/18 02:55:12;;;;;;;;;;;;;;;17.10;40.41;100083.88;5110144;28;1906;-46
2024/01/18 02:57:38;;;;;;;;;;;;;;;16.31;41.32;100090.44;5103689;28;1108;-47
2024/01/18 03:00:04;;;;;;;;;;;;;;;15.70;42.93;100082.03;5109754;28;1065;-46
2024/01/18 03:02:29;;;;;;;;;;;;;;;17.42;39.15;100086.53;5095739;28;1090;-47
2024/01/18 03:04:55;;;;;;;;;;;;;;;16.04;41.98;100081.97;5101251;28;1049;-45
2024/01/18 03:07:20;;;;;;;;;;;;;;;15.57;42.93;100071.53;5113467;28;955;-49
2024/01/18 03:09:46;;;;;;;;;;;;;;;16.95;40.61;100083.34;5115818;28;1147;-48
2024/01/18 03:12:11;;;;;;;;;;;;;;;16.40;41.27;100076.41;5116289;28;1140;-47
2024/01/18 03:14:37;;;;;;;;;;;;;;;15.65;42.61;100069.13;5089367;28;1910;-46
2024/01/18 03:17:03;;;;;;;;;;;;;;;16.87;40.86;100072.53;5118894;28;1104;-47
2024/01/18 03:19:28;;;;;;;;;;;;;;;16.67;40.43;100069.75;5110167;28;1106;-47
2024/01/18 03:21:54;;;;;;;;;;;;;;;15.76;42.31;100070.91;5107480;28;1197;-48
2024/01/18 03:24:20;;;;;;;;;;;;;;;16.57;41.43;100069.69;5105559;28;1039;-46
2024/01/18 03:26:45;;;;;;;;;;;;;;;17.50;38.87;100068.94;5106945;28;1319;-46
2024/01/18 03:29:11;;;;;;;;;;;;;;;16.04;41.96;100068.72;5113043;28;1149;-45
2024/01/18 03:31:36;;;;;;;;;;;;;;;15.67;42.65;100068.03;5102892;28;894;-46
2024/01/18 03:34:02;;;;;;;;;;;;;;;17.49;39.01;100063.75;5119423;28;1906;-49
2024/01/18 03:36:28;;;;;;;;;;;;;;;16.07;41.80;100065.78;5119388;28;1082;-48
2024/01/18 03:38:53;;;;;;;;;;;;;;;15.70;42.42;100060.81;5119596;28;1204;-44
2024/01/18 03:41:19;;;;;;;;;;;;;;;16.02;42.58;100065.31;5119968;28;1166;-47
2024/01/18 03:43:44;;;;;;;;;;;;;;;17.17;39.49;100057.59;5108954;28;1065;-47
2024/01/18 03:46:16;;;;;;;;;;;;;;;15.78;42.22;100053.91;5106482;28;1133;-46
2024/01/18 03:48:41;;;;;;;;;;;;;;;15.49;42.74;100056.25;5092315;28;1011;-46
2024/01/18 03:51:07;;;;;;;;;;;;;;;15.79;42.93;100055.59;5106259;28;1161;-48
2024/01/18 03:53:32;;;;;;;;;;;;;;;17.58;38.97;100048.81;5117343;28;1901;-49
2024/01/18 03:55:59;;;;;;;;;;;;;;;15.87;42.10;100057.63;5101672;28;910;-47
2024/01/18 03:58:25;;;;;;;;;;;;;;;15.48;42.83;100054.56;5118187;28;1149;-45
2024/01/18 04:00:51;;;;;;;;;;;;;;;16.86;40.54;100045.13;5107028;28;1180;-44
2024/01/18 04:03:16;;;;;;;;;;;;;;;15.74;42.54;100048.97;5094592;28;1112;-44
2024/01/18 04:05:42;;;;;;;;;;;;;;;15.57;43.52;100048.53;5098545;28;1074;-47
2024/01/18 04:08:07;;;;;;;;;;;;;;;17.31;39.48;100044.94;5116605;28;1652;-47
2024/01/18 04:10:33;;;;;;;;;;;;;;;15.84;42.29;100049.06;5106687;28;1181;-51
2024/01/18 04:12:59;;;;;;;;;;;;;;;15.43;42.73;100045.16;5107544;28;1975;-46
2024/01/18 04:15:24;;;;;;;;;;;;;;;15.94;42.64;100046.50;5086014;28;1154;-47
2024/01/18 04:17:50;;;;;;;;;;;;;;;16.98;40.02;100040.56;5088538;28;1115;-44
2024/01/18 04:20:21;;;;;;;;;;;;;;;15.78;42.31;100040.63;5092091;28;1141;-49
2024/01/18 04:22:47;;;;;;;;;;;;;;;15.39;42.73;100041.09;5090576;28;1265;-46
2024/01/18 04:25:12;;;;;;;;;;;;;;;17.26;40.05;100042.69;5097499;28;1070;-45
2024/01/18 04:27:38;;;;;;;;;;;;;;;16.08;41.76;100040.13;5078256;28;1166;-53
2024/01/18 04:30:04;;;;;;;;;;;;;;;15.50;42.90;100039.38;5079219;28;2970;-55
2024/01/18 04:32:30;;;;;;;;;;;;;;;16.22;42.33;100041.63;5110645;28;1990;-55
2024/01/18 04:34:56;;;;;;;;;;;;;;;16.52;40.72;100037.38;5084832;28;2061;-56
2024/01/18 04:37:21;;;;;;;;;;;;;;;16.03;42.30;100033.38;5103932;28;1881;-57
2024/01/18 04:39:47;;;;;;;;;;;;;;;18.04;38.11;100035.00;5085368;28;1812;-54
2024/01/18 04:42:14;;;;;;;;;;;;;;;16.47;41.03;100036.91;5083692;28;1760;-58
2024/01/18 04:44:41;;;;;;;;;;;;;;;15.85;42.12;100038.34;5091848;28;1046;-55
2024/01/18 04:47:06;;;;;;;;;;;;;;;15.46;42.55;100032.63;5109029;28;1232;-57
2024/01/18 04:49:32;;;;;;;;;;;;;;;16.28;41.71;100038.47;5112945;28;1026;-50
2024/01/18 04:51:59;;;;;;;;;;;;;;;16.42;41.11;100037.31;5104406;28;1158;-43
2024/01/18 04:54:24;;;;;;;;;;;;;;;15.67;42.83;100038.03;5105299;28;1914;-49
2024/01/18 04:56:50;;;;;;;;;;;;;;;16.92;40.53;100041.09;5104505;28;1089;-48
2024/01/18 04:59:17;;;;;;;;;;;;;;;15.97;42.41;100036.50;5095178;28;1355;-44
2024/01/18 05:01:43;;;;;;;;;;;;;;;15.67;43.08;100038.88;5096680;28;1323;-45
2024/01/18 05:04:09;;;;;;;;;;;;;;;17.02;40.08;100034.03;5117707;28;1066;-50
2024/01/18 05:06:34;;;;;;;;;;;;;;;15.77;42.31;100036.31;5116500;28;1070;-50
2024/01/18 05:09:00;;;;;;;;;;;;;;;15.42;43.14;100032.03;5092014;28;1130;-48
2024/01/18 05:11:26;;;;;;;;;;;;;;;16.86;40.34;100029.19;5096820;28;1150;-44
2024/01/18 05:13:51;;;;;;;;;;;;;;;15.65;42.76;100032.84;5091486;28;2220;-45
2024/01/18 05:16:18;;;;;;;;;;;;;;;15.46;43.35;100025.53;5116795;28;1535;-49
2024/01/18 05:18:44;;;;;;;;;;;;;;;17.59;39.04;100019.41;5087249;28;1015;-47
2024/01/18 05:21:09;;;;;;;;;;;;;;;16.08;41.54;100018.88;5102344;28;1046;-47
2024/01/18 05:23:36;;;;;;;;;;;;;;;16.43;41.31;100017.75;5117365;28;1038;-49
2024/01/18 05:26:02;;;;;;;;;;;;;;;16.26;41.49;100012.06;5103216;28;1054;-46
2024/01/18 05:28:28;;;;;;;;;;;;;;;16.07;41.74;100015.38;5092015;28;1075;-50
2024/01/18 05:30:53;;;;;;;;;;;;;;;15.85;42.19;100014.47;5114721;28;1117;-51
2024/01/18 05:33:19;;;;;;;;;;;;;;;15.73;42.51;100007.53;5111757;28;1984;-51
2024/01/18 05:35:45;;;;;;;;;;;;;;;15.50;42.73;100004.91;5104857;28;1082;-51
2024/01/18 05:38:10;;;;;;;;;;;;;;;15.38;42.74;100004.09;5101272;28;1109;-48
2024/01/18 05:40:36;;;;;;;;;;;;;;;15.21;43.20;100002.78;5106623;28;1087;-53
2024/01/18 05:43:02;;;;;;;;;;;;;;;16.16;41.54;99995.22;5088787;28;1839;-51
2024/01/18 05:45:28;;;;;;;;;;;;;;;17.07;39.29;99999.06;5086207;28;1351;-50
2024/01/18 05:47:53;;;;;;;;;;;;;;;16.19;41.21;100002.06;5101465;28;1038;-56
2024/01/18 05:50:19;;;;;;;;;;;;;;;15.71;42.26;99994.41;5111685;28;1103;-53
2024/01/18 05:52:45;;;;;;;;;;;;;;;15.47;42.35;99992.75;5093007;28;1180;-53
2024/01/18 05:55:11;;;;;;;;;;;;;;;15.38;43.09;99996.97;5091825;28;1901;-48
2024/01/18 05:57:37;;;;;;;;;;;;;;;16.92;39.71;99989.75;5084521;28;1414;-52
2024/01/18 06:00:05;;;;;;;;;;;;;;;16.82;39.58;99987.06;5087670;28;1099;-44
2024/01/18 06:02:31;;;;;;;;;;;;;;;16.06;41.12;99991.63;5083474;28;1256;-45
2024/01/18 06:04:57;;;;;;;;;;;;;;;15.74;42.09;99987.97;5092094;28;1050;-50
2024/01/18 06:07:23;;;;;;;;;;;;;;;15.48;42.40;99991.78;5099535;28;1050;-41
2024/01/18 06:09:48;;;;;;;;;;;;;;;15.42;42.51;99992.28;5116536;28;1042;-46
2024/01/18 06:12:14;;;;;;;;;;;;;;;16.87;39.85;99984.84;5091166;28;1129;-44
2024/01/18 06:14:40;;;;;;;;;;;;;;;16.84;39.53;99978.00;5083902;28;1955;-44
2024/01/18 06:17:06;;;;;;;;;;;;;;;16.03;41.50;99982.13;5078282;28;1158;-51
2024/01/18 06:19:32;;;;;;;;;;;;;;;15.81;41.94;99983.88;5090656;28;1221;-49
2024/01/18 06:21:57;;;;;;;;;;;;;;;15.49;42.26;99989.97;5089041;28;1116;-49
2024/01/18 06:24:25;;;;;;;;;;;;;;;16.45;40.89;99985.78;5083412;28;1107;-50
2024/01/18 06:26:52;;;;;;;;;;;;;;;17.49;38.41;99983.97;5096382;28;1084;-50
2024/01/18 06:29:17;;;;;;;;;;;;;;;16.46;40.15;99988.31;5116526;28;1045;-47
2024/01/18 06:31:43;;;;;;;;;;;;;;;15.97;41.43;99985.25;5093564;28;1164;-49
2024/01/18 06:34:09;;;;;;;;;;;;;;;15.64;42.13;99987.91;5102285;28;1910;-47
2024/01/18 06:36:37;;;;;;;;;;;;;;;15.53;42.52;99988.78;5089683;28;1039;-47
2024/01/18 06:39:02;;;;;;;;;;;;;;;15.43;42.95;99981.56;5101952;28;1204;-47
2024/01/18 06:41:28;;;;;;;;;;;;;;;16.95;39.66;99977.06;5089970;28;1093;-49
2024/01/18 06:43:54;;;;;;;;;;;;;;;17.04;38.81;99972.78;5096842;28;1236;-44
2024/01/18 06:46:20;;;;;;;;;;;;;;;16.11;41.04;99973.53;5082706;28;1171;-44
2024/01/18 06:48:53;;;;;;;;;;;;;;;15.76;42.05;99971.00;5103770;28;1041;-50
2024/01/18 06:51:21;;;;;;;;;;;;;;;15.47;42.42;99973.34;5117954;28;1140;-46
2024/01/18 06:53:47;;;;;;;;;;;;;;;15.42;42.87;99973.72;5100531;28;1905;-49
2024/01/18 06:56:13;;;;;;;;;;;;;;;16.96;39.61;99964.63;5087943;28;1062;-48
2024/01/18 06:58:39;;;;;;;;;;;;;;;16.86;39.62;99967.25;5107975;28;1233;-46
2024/01/18 07:01:05;;;;;;;;;;;;;;;16.03;41.27;99966.22;5118722;28;1037;-48
2024/01/18 07:03:31;;;;;;;;;;;;;;;15.71;42.09;99967.88;5094978;28;1058;-47
2024/01/18 07:05:56;;;;;;;;;;;;;;;15.53;42.33;99964.94;5106064;28;1088;-51
2024/01/18 07:08:22;;;;;;;;;;;;;;;15.78;42.30;99957.63;5111887;28;1042;-50
2024/01/18 07:10:48;;;;;;;;;;;;;;;17.16;39.25;99956.75;5114120;28;1443;-49
2024/01/18 07:13:14;;;;;;;;;;;;;;;16.68;39.84;99953.75;5112107;28;1905;-54
2024/01/18 07:15:40;;;;;;;;;;;;;;;16.01;41.15;99950.44;5098801;28;1171;-49
2024/01/18 07:18:05;;;;;;;;;;;;;;;15.64;42.20;99954.28;5112667;28;1210;-46
2024/01/18 07:20:31;;;;;;;;;;;;;;;15.46;42.71;99943.38;5118975;28;1042;-47
2024/01/18 07:22:56;;;;;;;;;;;;;;;15.65;41.92;99942.69;5105869;28;1136;-53
2024/01/18 07:25:22;;;;;;;;;;;;;;;17.10;39.15;99945.69;5110689;28;1204;-48
2024/01/18 07:27:48;;;;;;;;;;;;;;;16.55;39.82;99943.34;5099050;28;1118;-52
2024/01/18 07:30:14;;;;;;;;;;;;;;;15.97;41.45;99943.66;5109354;28;1084;-51
2024/01/18 07:32:40;;;;;;;;;;;;;;;15.62;42.06;99948.25;5109768;28;1123;-54
2024/01/18 07:35:05;;;;;;;;;;;;;;;15.47;42.38;99945.03;5109425;28;1909;-50
2024/01/18 07:37:31;;;;;;;;;;;;;;;15.99;41.38;99941.75;5105865;28;1146;-52
2024/01/18 07:39:57;;;;;;;;;;;;;;;17.22;39.00;99941.09;5120357;28;1027;-50
2024/01/18 07:42:22;;;;;;;;;;;;;;;16.28;40.83;99942.94;5088735;28;1102;-48
2024/01/18 07:44:48;;;;;;;;;;;;;;;15.82;41.61;99936.97;5109065;28;894;-49
2024/01/18 07:47:13;;;;;;;;;;;;;;;15.55;42.50;99939.09;5119428;28;1097;-46
2024/01/18 07:49:45;;;;;;;;;;;;;;;15.74;41.94;99937.59;5119188;28;1018;-50
2024/01/18 07:52:12;;;;;;;;;;;;;;;16.20;41.11;99940.91;5099654;28;935;-51
2024/01/18 07:54:38;;;;;;;;;;;;;;;17.32;38.83;99927.84;5100328;28;1969;-46
2024/01/18 07:57:03;;;;;;;;;;;;;;;16.49;40.34;99928.78;5107995;28;926;-46
2024/01/18 07:59:29;;;;;;;;;;;;;;;15.82;41.74;99931.66;5112843;28;1161;-50
2024/01/18 08:01:54;;;;;;;;;;;;;;;15.55;42.52;99932.00;5106776;28;1089;-44
2024/01/18 08:04:20;;;;;;;;;;;;;;;15.37;43.03;99925.53;5117243;28;1093;-48
2024/01/18 08:06:46;;;;;;;;;;;;;;;15.45;42.96;99931.06;5107842;28;1237;-48
2024/01/18 08:09:12;;;;;;;;;;;;;;;16.88;39.88;99931.59;5114199;28;1194;-48
2024/01/18 08:11:38;;;;;;;;;;;;;;;16.91;39.30;99924.34;5107047;28;1113;-48
2024/01/18 08:14:03;;;;;;;;;;;;;;;16.08;41.27;99923.38;5104717;28;1970;-50
2024/01/18 08:16:29;;;;;;;;;;;;;;;15.66;42.32;99917.03;5111475;28;1114;-47
2024/01/18 08:18:55;;;;;;;;;;;;;;;15.46;42.48;99908.06;5098127;28;1165;-48
2024/01/18 08:21:21;;;;;;;;;;;;;;;15.58;42.79;99898.25;5102411;28;899;-51
2024/01/18 08:23:47;;;;;;;;;;;;;;;17.01;39.52;99899.50;5098178;28;1169;-49
2024/01/18 08:26:14;;;;;;;;;;;;;;;16.91;39.30;99895.97;5106229;28;1082;-47
2024/01/18 08:28:40;;;;;;;;;;;;;;;16.11;41.28;99897.44;5103777;28;1102;-53
2024/01/18 08:31:06;;;;;;;;;;;;;;;15.64;42.24;99885.34;5093985;28;1156;-52
2024/01/18 08:33:32;;;;;;;;;;;;;;;15.49;42.43;99887.44;5110360;28;1976;-49
2024/01/18 08:35:58;;;;;;;;;;;;;;;15.29;42.82;99895.22;5092826;28;1046;-52
2024/01/18 08:38:23;;;;;;;;;;;;;;;16.26;41.30;99887.31;5101257;28;1077;-50
2024/01/18 08:40:49;;;;;;;;;;;;;;;17.38;38.68;99881.25;5095634;28;1166;-48
2024/01/18 08:43:14;;;;;;;;;;;;;;;16.53;40.36;99885.91;5118371;28;1116;-50
2024/01/18 08:45:41;;;;;;;;;;;;;;;15.81;41.65;99871.63;5105376;28;1205;-52
2024/01/18 08:48:07;;;;;;;;;;;;;;;15.61;42.29;99882.97;5101442;28;1145;-51
2024/01/18 08:50:33;;;;;;;;;;;;;;;15.38;43.05;99885.66;5088554;28;1023;-51
2024/01/18 08:52:58;;;;;;;;;;;;;;;16.22;41.18;99874.44;5110869;28;1014;-50
2024/01/18 08:55:24;;;;;;;;;;;;;;;17.27;38.75;99871.56;5093188;28;1981;-54
2024/01/18 08:57:52;;;;;;;;;;;;;;;16.32;40.92;99869.16;5115106;28;1516;-50
2024/01/18 09:00:18;;;;;;;;;;;;;;;15.75;42.16;99863.22;5086714;28;1047;-54
2024/01/18 09:02:47;;;;;;;;;;;;;;;15.50;42.47;99867.06;5112425;28;1035;-51
2024/01/18 09:05:12;;;;;;;;;;;;;;;15.40;42.71;99872.28;5117634;28;1041;-46
2024/01/18 09:07:38;;;;;;;;;;;;;;;16.89;39.97;99868.69;5092320;28;1209;-47
2024/01/18 09:10:04;;;;;;;;;;;;;;;16.84;39.65;99858.47;5098494;28;903;-49
2024/01/18 09:12:30;;;;;;;;;;;;;;;16.03;41.65;99857.44;5106332;28;1018;-49
2024/01/18 09:14:56;;;;;;;;;;;;;;;15.71;41.98;99848.56;5104524;28;1901;-52
2024/01/18 09:17:21;;;;;;;;;;;;;;;15.51;42.83;99836.97;5109853;28;1058;-48
2024/01/18 09:19:47;;;;;;;;;;;;;;;16.03;41.49;99834.38;5117690;28;1058;-44
2024/01/18 09:22:14;;;;;;;;;;;;;;;17.28;39.09;99836.06;5107027;28;1193;-47
2024/01/18 09:24:41;;;;;;;;;;;;;;;16.35;40.67;99827.28;5105948;28;1150;-51
2024/01/18 09:27:07;;;;;;;;;;;;;;;15.85;41.83;99820.03;5077061;28;1451;-50
2024/01/18 09:29:32;;;;;;;;;;;;;;;15.56;42.77;99816.22;5084964;28;1066;-50
2024/01/18 09:31:58;;;;;;;;;;;;;;;15.43;42.96;99811.94;5088229;28;1075;-44
2024/01/18 09:34:24;;;;;;;;;;;;;;;15.69;42.36;99815.16;5088595;28;1906;-51
2024/01/18 09:36:49;;;;;;;;;;;;;;;17.04;39.60;99818.66;5111002;28;1010;-51
2024/01/18 09:39:17;;;;;;;;;;;;;;;16.61;40.15;99810.06;5100180;28;1138;-49
2024/01/18 09:41:43;;;;;;;;;;;;;;;15.93;41.63;99817.56;5104396;28;1014;-52
2024/01/18 09:44:10;;;;;;;;;;;;;;;15.60;42.58;99814.97;5115308;28;1895;-50
2024/01/18 09:46:36;;;;;;;;;;;;;;;15.38;42.78;99802.69;5086986;28;907;-53
2024/01/18 09:49:02;;;;;;;;;;;;;;;15.93;41.70;99795.50;5102427;28;1026;-49
2024/01/18 09:51:27;;;;;;;;;;;;;;;17.21;39.22;99795.91;5088902;28;1062;-48
2024/01/18 09:53:56;;;;;;;;;;;;;;;16.64;39.87;99784.06;5097056;28;1970;-50
2024/01/18 09:56:22;;;;;;;;;;;;;;;15.96;41.77;99780.16;5079100;28;1161;-50
2024/01/18 09:58:49;;;;;;;;;;;;;;;15.70;42.01;99769.16;5087854;28;857;-47
2024/01/18 10:01:18;;;;;;;;;;;;;;;15.49;42.73;99764.69;5090302;28;1165;-53
2024/01/18 10:03:44;;;;;;;;;;;;;;;15.77;42.67;99759.69;5107177;28;1051;-49
2024/01/18 10:06:09;;;;;;;;;;;;;;;17.14;39.39;99765.53;5094249;28;1122;-50
2024/01/18 10:08:35;;;;;;;;;;;;;;;16.89;39.63;99765.94;5098263;28;1190;-45
2024/01/18 10:11:00;;;;;;;;;;;;;;;16.07;41.71;99743.91;5098995;28;1242;-49
2024/01/18 10:13:26;;;;;;;;;;;;;;;15.67;42.53;99749.88;5094866;28;1898;-49
2024/01/18 10:15:52;;;;;;;;;;;;;;;15.50;42.66;99759.25;5079989;28;1317;-44
2024/01/18 10:18:18;;;;;;;;;;;;;;;15.39;43.24;99757.50;5096223;28;1094;-45
2024/01/18 10:20:45;;;;;;;;;;;;;;;16.03;41.92;99738.06;5092145;28;1178;-50
2024/01/18 10:23:10;;;;;;;;;;;;;;;17.25;39.03;99736.16;5097364;28;1022;-48
2024/01/18 10:25:36;;;;;;;;;;;;;;;16.55;40.35;99734.44;5090339;28;1054;-49
2024/01/18 10:28:02;;;;;;;;;;;;;;;15.92;41.67;99728.34;5096841;28;1019;-49
2024/01/18 10:30:28;;;;;;;;;;;;;;;15.71;42.31;99718.63;5108537;28;1022;-49
2024/01/18 10:32:54;;;;;;;;;;;;;;;15.54;42.79;99712.13;5088911;28;1082;-43
2024/01/18 10:35:24;;;;;;;;;;;;;;;16.62;40.74;99714.31;5095049;28;1905;-49
2024/01/18 10:37:58;;;;;;;;;;;;;;;17.09;39.33;99710.16;5093674;28;1094;-50
2024/01/18 10:40:24;;;;;;;;;;;;;;;16.14;41.44;99706.13;5098971;28;1101;-47
2024/01/18 10:42:50;;;;;;;;;;;;;;;15.69;42.69;99696.72;5106416;28;1069;-49
2024/01/18 10:45:15;;;;;;;;;;;;;;;15.48;42.79;99694.91;5094091;28;1181;-48
2024/01/18 10:47:42;;;;;;;;;;;;;;;15.68;42.64;99689.75;5095705;28;1029;-44
2024/01/18 10:50:07;;;;;;;;;;;;;;;17.15;39.72;99689.31;5100117;28;1051;-48
2024/01/18 10:52:34;;;;;;;;;;;;;;;16.75;40.38;99673.38;5116300;28;1400;-49
2024/01/18 10:55:00;;;;;;;;;;;;;;;16.01;42.05;99677.19;5084295;28;1918;-48
2024/01/18 10:57:26;;;;;;;;;;;;;;;15.72;42.25;99671.72;5089148;28;1522;-50
2024/01/18 10:59:52;;;;;;;;;;;;;;;15.85;43.36;99677.66;5081481;28;1140;-48
2024/01/18 11:02:18;;;;;;;;;;;;;;;15.35;43.22;99658.03;5095569;28;1121;-48
2024/01/18 11:04:43;;;;;;;;;;;;;;;16.20;41.71;99658.81;5095103;28;998;-53
2024/01/18 11:07:09;;;;;;;;;;;;;;;17.33;39.29;99645.06;5087982;28;1061;-55
2024/01/18 11:09:36;;;;;;;;;;;;;;;16.45;40.78;99641.50;5085190;28;1197;-55
2024/01/18 11:12:03;;;;;;;;;;;;;;;15.94;42.08;99640.69;5078304;28;1162;-54
2024/01/18 11:14:28;;;;;;;;;;;;;;;15.61;42.62;99633.75;5080154;28;1902;-56
2024/01/18 11:16:54;;;;;;;;;;;;;;;15.41;43.44;99641.59;5088211;28;1010;-55
2024/01/18 11:19:41;;;;;;;;;;;;;;;15.63;43.00;99623.00;5099367;28;1054;-54
2024/01/18 11:22:10;;;;;;;;;;;;;;;17.17;39.62;99611.13;5094854;28;999;-54
2024/01/18 11:24:36;;;;;;;;;;;;;;;16.61;40.71;99608.25;5095251;28;1035;-53
2024/01/18 11:27:15;;;;;;;;;;;;;;;16.01;42.15;99621.50;5093685;28;1070;-54
2024/01/18 11:29:41;;;;;;;;;;;;;;;15.67;42.92;99619.97;5095906;28;1077;-49
2024/01/18 11:32:06;;;;;;;;;;;;;;;15.46;42.88;99613.88;5094380;28;1193;-52
2024/01/18 11:34:36;;;;;;;;;;;;;;;15.64;43.18;99608.78;5077099;28;1915;-54
2024/01/18 11:37:27;;;;;;;;;;;;;;;17.10;40.06;99613.53;5095133;28;1086;-54
2024/01/18 11:39:53;;;;;;;;;;;;;;;16.61;40.71;99605.59;5094711;28;1560;-54
2024/01/18 11:42:20;;;;;;;;;;;;;;;16.02;42.02;99593.13;5108599;28;1130;-54
2024/01/18 11:45:01;;;;;;;;;;;;;;;15.67;42.52;99588.16;5103402;28;1105;-52
2024/01/18 11:47:27;;;;;;;;;;;;;;;15.42;43.24;99581.50;5110013;28;847;-51
2024/01/18 11:49:53;;;;;;;;;;;;;;;15.32;43.41;99572.66;5100802;28;1006;-49
2024/01/18 11:52:21;;;;;;;;;;;;;;;16.28;41.71;99577.50;5111604;28;1093;-54
2024/01/18 11:54:47;;;;;;;;;;;;;;;17.35;39.39;99581.97;5100358;28;1914;-52
2024/01/18 11:57:13;;;;;;;;;;;;;;;16.38;41.20;99577.50;5102531;28;1078;-51
2024/01/18 11:59:43;;;;;;;;;;;;;;;15.88;42.56;99583.72;5089967;28;955;-50
2024/01/18 12:02:09;;;;;;;;;;;;;;;15.67;42.89;99585.50;5092610;28;1152;-49
2024/01/18 12:04:35;;;;;;;;;;;;;;;15.45;43.27;99583.06;5099750;28;1023;-52
2024/01/18 12:07:00;;;;;;;;;;;;;;;15.71;43.17;99579.91;5079814;28;1359;-53
2024/01/18 12:09:27;;;;;;;;;;;;;;;17.09;40.06;99572.00;5088990;28;1039;-53
2024/01/18 12:11:55;;;;;;;;;;;;;;;16.68;40.71;99568.69;5107028;28;1011;-49
2024/01/18 12:14:20;;;;;;;;;;;;;;;15.97;42.35;99574.94;5083443;28;1924;-48
2024/01/18 12:16:46;;;;;;;;;;;;;;;15.71;43.12;99572.81;5089404;28;1126;-45
2024/01/18 12:19:11;;;;;;;;;;;;;;;15.53;43.57;99577.91;5081203;28;1378;-47
2024/01/18 12:21:37;;;;;;;;;;;;;;;15.37;43.76;99573.94;5093161;28;1276;-48
2024/01/18 12:24:03;;;;;;;;;;;;;;;16.65;41.30;99562.69;5087323;28;965;-50
2024/01/18 12:26:30;;;;;;;;;;;;;;;17.04;40.47;99563.59;5103783;28;1055;-46
2024/01/18 12:28:56;;;;;;;;;;;;;;;16.17;42.19;99564.38;5090176;28;1234;-56
2024/01/18 12:31:22;;;;;;;;;;;;;;;15.82;42.90;99568.34;5095836;28;1280;-50
2024/01/18 12:33:47;;;;;;;;;;;;;;;15.55;43.69;99566.19;5091104;28;1901;-51
2024/01/18 12:36:13;;;;;;;;;;;;;;;15.37;43.80;99565.16;5095899;28;987;-47
2024/01/18 12:38:38;;;;;;;;;;;;;;;16.38;41.78;99555.47;5083597;28;1308;-48
2024/01/18 12:41:04;;;;;;;;;;;;;;;17.37;39.52;99566.72;5098456;28;1246;-50
2024/01/18 12:43:30;;;;;;;;;;;;;;;16.34;41.83;99560.19;5104792;28;1042;-51
2024/01/18 12:45:55;;;;;;;;;;;;;;;15.90;42.47;99553.44;5111103;28;1030;-50